Terminal Aerodrome Forecast
Issued by NWS

Home | Current Version | Previous Version | Text Only | Print | Product List | Glossary Off
Versions: 1 2 3 4 5 6 7 8 9 10 11 12 13 14 15 16 17

000
FTUS43 KMPX 152030 AAA
TAFRWF
TAF AMD
KRWF 152030Z 1521/1618 21007KT P6SM SCT020 OVC035
     FM160500 17006KT P6SM OVC060
     FM161000 11004KT P6SM OVC250=

USA.gov is the U.S. government's official web portal to all federal, state and local government web resources and services.